createdAt,value
2018-08-28T00:02:05.062Z,17.19
2018-08-28T00:04:32.364Z,17.14
2018-08-28T00:06:59.648Z,17.18
2018-08-28T00:12:19.595Z,17.23
2018-08-28T00:14:46.885Z,17.23
2018-08-28T00:17:14.172Z,17.24
2018-08-28T00:19:41.445Z,17.26
2018-08-28T00:22:08.722Z,17.21
2018-08-28T00:24:36.060Z,17.27
2018-08-28T00:27:03.401Z,17.21
2018-08-28T00:29:30.695Z,17.08
2018-08-28T00:31:57.977Z,16.88
2018-08-28T00:34:25.312Z,17.06
2018-08-28T00:36:52.758Z,17.01
2018-08-28T00:39:20.002Z,16.96
2018-08-28T00:41:47.498Z,16.98
2018-08-28T00:44:14.859Z,16.97
2018-08-28T00:46:42.193Z,16.90
2018-08-28T00:49:09.447Z,16.88
2018-08-28T00:51:36.724Z,16.91
2018-08-28T00:54:04.035Z,16.96
2018-08-28T00:56:31.372Z,16.93
2018-08-28T00:58:58.689Z,16.85
2018-08-28T01:01:25.983Z,16.82
2018-08-28T01:03:53.265Z,16.84
2018-08-28T01:06:20.551Z,16.81
2018-08-28T01:08:47.919Z,16.81
2018-08-28T01:11:15.211Z,16.79
2018-08-28T01:13:42.550Z,16.70
2018-08-28T01:16:09.884Z,16.66
2018-08-28T01:18:37.199Z,16.66
2018-08-28T01:21:04.479Z,16.67
2018-08-28T01:23:31.784Z,16.57
2018-08-28T01:25:59.106Z,16.54
2018-08-28T01:28:26.450Z,16.57
2018-08-28T01:30:53.759Z,16.57
2018-08-28T01:33:21.023Z,16.55
2018-08-28T01:35:48.317Z,16.58
2018-08-28T01:38:15.570Z,16.53
2018-08-28T01:40:42.817Z,16.49
2018-08-28T01:43:16.660Z,16.46
2018-08-28T01:45:44.031Z,16.42
2018-08-28T01:48:11.275Z,16.34
2018-08-28T01:50:38.606Z,16.27
2018-08-28T01:53:05.877Z,16.26
2018-08-28T01:55:33.138Z,16.20
2018-08-28T01:58:00.417Z,16.20
2018-08-28T02:00:27.643Z,16.20
2018-08-28T02:02:54.964Z,16.22
2018-08-28T02:05:22.220Z,16.17
2018-08-28T02:07:49.577Z,16.12
2018-08-28T02:10:16.857Z,16.09
2018-08-28T02:12:44.084Z,16.04
2018-08-28T02:15:11.354Z,16.04
2018-08-28T02:17:38.987Z,16.08
2018-08-28T02:20:06.412Z,16.07
2018-08-28T02:22:33.643Z,16.04
2018-08-28T02:25:01.002Z,15.97
2018-08-28T02:27:28.341Z,15.89
2018-08-28T02:29:55.604Z,15.88
2018-08-28T02:32:22.933Z,15.91
2018-08-28T02:34:50.370Z,15.91
2018-08-28T02:37:17.643Z,15.84
2018-08-28T02:39:44.982Z,15.84
2018-08-28T02:42:12.394Z,15.74
2018-08-28T02:44:39.735Z,15.73
2018-08-28T02:47:07.103Z,15.69
2018-08-28T02:49:34.393Z,15.72
2018-08-28T02:52:01.740Z,15.69
2018-08-28T02:57:22.093Z,15.69
2018-08-28T02:59:49.503Z,15.62
2018-08-28T03:02:16.815Z,15.56
2018-08-28T03:04:44.182Z,15.54
2018-08-28T03:07:11.447Z,15.51
2018-08-28T03:09:38.804Z,15.43
2018-08-28T03:12:06.174Z,15.37
2018-08-28T03:14:33.442Z,15.35
2018-08-28T03:17:00.681Z,15.28
2018-08-28T03:19:27.965Z,15.26
2018-08-28T03:21:55.278Z,15.20
2018-08-28T03:24:22.601Z,15.19
2018-08-28T03:26:49.865Z,15.16
2018-08-28T03:29:17.271Z,15.13
2018-08-28T03:31:44.521Z,15.07
2018-08-28T03:34:11.808Z,15.05
2018-08-28T03:36:39.092Z,15.04
2018-08-28T03:39:06.480Z,15.02
2018-08-28T03:41:33.756Z,14.98
2018-08-28T03:44:01.062Z,15.02
2018-08-28T03:46:28.418Z,14.98
2018-08-28T03:48:55.718Z,14.99
2018-08-28T03:51:23.093Z,15.00
2018-08-28T03:53:50.393Z,14.93
2018-08-28T03:56:17.641Z,14.93
2018-08-28T03:58:44.959Z,14.88
2018-08-28T04:01:12.307Z,14.83
2018-08-28T04:03:39.697Z,14.79
2018-08-28T04:06:07.686Z,14.65
2018-08-28T04:08:35.042Z,14.56
2018-08-28T04:11:02.315Z,14.60
2018-08-28T04:13:29.578Z,14.61
2018-08-28T04:15:56.911Z,14.58
2018-08-28T04:18:24.127Z,14.56
2018-08-28T04:20:51.438Z,14.52
2018-08-28T04:23:19.425Z,14.50
2018-08-28T04:25:46.693Z,14.43
2018-08-28T04:28:18.600Z,14.37
2018-08-28T04:30:45.901Z,14.35
2018-08-28T04:33:13.129Z,14.40
2018-08-28T04:35:40.379Z,14.35
2018-08-28T04:38:07.654Z,14.34
2018-08-28T04:40:34.968Z,14.32
2018-08-28T04:43:02.574Z,14.32
2018-08-28T04:45:29.952Z,14.35
2018-08-28T04:47:57.288Z,14.31
2018-08-28T04:50:24.585Z,14.34
2018-08-28T04:52:51.868Z,14.37
2018-08-28T04:55:19.257Z,14.29
2018-08-28T04:57:46.562Z,14.24
2018-08-28T05:00:13.804Z,14.16
2018-08-28T05:02:41.065Z,14.20
2018-08-28T05:05:09.032Z,14.22
2018-08-28T05:07:36.316Z,14.26
2018-08-28T05:10:04.554Z,14.35
2018-08-28T05:12:31.852Z,14.29
2018-08-28T05:14:59.482Z,14.33
2018-08-28T05:17:26.769Z,14.34
2018-08-28T05:19:54.244Z,14.34
2018-08-28T05:22:21.970Z,14.38
2018-08-28T05:24:49.487Z,14.41
2018-08-28T05:27:16.789Z,14.45
2018-08-28T05:29:44.123Z,14.52
2018-08-28T05:32:11.343Z,14.63
2018-08-28T05:34:38.760Z,14.61
2018-08-28T05:37:06.201Z,14.63
2018-08-28T05:39:33.598Z,14.56
2018-08-28T05:42:00.941Z,14.45
2018-08-28T05:44:28.205Z,14.52
2018-08-28T05:46:55.598Z,14.52
2018-08-28T05:49:22.959Z,14.59
2018-08-28T05:51:50.234Z,14.66
2018-08-28T05:54:17.523Z,14.80
2018-08-28T05:56:44.775Z,14.95
2018-08-28T05:59:12.018Z,15.09
2018-08-28T06:01:39.424Z,15.18
2018-08-28T06:04:06.813Z,15.25
2018-08-28T06:06:34.158Z,15.43
2018-08-28T06:09:01.495Z,15.27
2018-08-28T06:11:28.935Z,15.29
2018-08-28T06:13:56.326Z,15.42
2018-08-28T06:16:23.712Z,15.57
2018-08-28T06:18:51.056Z,15.74
2018-08-28T06:21:18.366Z,15.83
2018-08-28T06:23:45.604Z,15.85
2018-08-28T06:26:12.922Z,16.00
2018-08-28T06:28:40.287Z,16.21
2018-08-28T06:31:07.526Z,16.25
2018-08-28T06:33:34.799Z,16.35
2018-08-28T06:36:02.182Z,16.55
2018-08-28T06:38:29.471Z,16.51
2018-08-28T06:41:03.760Z,16.58
2018-08-28T06:43:31.321Z,16.75
2018-08-28T06:45:58.716Z,17.01
2018-08-28T06:48:25.973Z,17.13
2018-08-28T06:50:53.370Z,17.25
2018-08-28T06:53:20.683Z,17.63
2018-08-28T06:55:47.937Z,17.82
2018-08-28T06:58:15.231Z,17.87
2018-08-28T07:00:42.521Z,17.84
2018-08-28T07:03:09.799Z,18.21
2018-08-28T07:05:37.164Z,18.38
2018-08-28T07:08:04.596Z,18.80
2018-08-28T07:10:31.959Z,19.15
2018-08-28T07:12:59.290Z,19.57
2018-08-28T07:15:26.603Z,19.96
2018-08-28T07:17:53.891Z,20.64
2018-08-28T07:20:21.211Z,21.18
2018-08-28T07:22:48.484Z,21.53
2018-08-28T07:25:15.729Z,21.87
2018-08-28T07:27:43.017Z,22.67
2018-08-28T07:30:10.250Z,23.23
2018-08-28T07:32:37.514Z,23.71
2018-08-28T07:35:04.838Z,23.85
2018-08-28T07:37:32.186Z,23.53
2018-08-28T07:39:59.498Z,23.45
2018-08-28T07:42:26.836Z,23.93
2018-08-28T07:44:54.114Z,24.03
2018-08-28T07:47:21.410Z,24.19
2018-08-28T07:49:48.660Z,24.37
2018-08-28T07:52:15.928Z,24.82
2018-08-28T07:54:43.266Z,24.84
2018-08-28T07:57:10.568Z,24.64
2018-08-28T07:59:37.838Z,24.58
2018-08-28T08:02:05.588Z,24.26
2018-08-28T08:04:33.332Z,24.14
2018-08-28T08:07:00.671Z,23.87
2018-08-28T08:09:27.989Z,24.08
2018-08-28T08:11:55.237Z,23.95
2018-08-28T08:14:22.552Z,23.63
2018-08-28T08:16:49.840Z,23.49
2018-08-28T08:19:17.120Z,23.54
2018-08-28T08:21:44.448Z,23.43
2018-08-28T08:24:11.781Z,23.33
2018-08-28T08:26:39.036Z,22.88
2018-08-28T08:29:06.507Z,22.85
2018-08-28T08:31:33.836Z,23.31
2018-08-28T08:34:01.075Z,23.10
2018-08-28T08:36:28.337Z,22.98
2018-08-28T08:38:55.609Z,23.49
2018-08-28T08:41:22.915Z,23.52
2018-08-28T08:43:50.131Z,23.22
2018-08-28T08:46:17.505Z,23.56
2018-08-28T08:48:44.911Z,23.68
2018-08-28T08:51:12.215Z,23.14
2018-08-28T08:53:39.521Z,22.93
2018-08-28T08:56:06.855Z,23.37
2018-08-28T08:58:34.184Z,23.66
2018-08-28T09:01:01.482Z,24.23
2018-08-28T09:03:28.763Z,24.58
2018-08-28T09:05:57.806Z,24.78
2018-08-28T09:08:25.171Z,24.65
2018-08-28T09:10:52.549Z,24.72
2018-08-28T09:13:19.811Z,24.63
2018-08-28T09:15:47.083Z,24.91
2018-08-28T09:18:14.360Z,25.60
2018-08-28T09:20:41.672Z,25.71
2018-08-28T09:23:08.992Z,24.88
2018-08-28T09:25:36.299Z,24.73
2018-08-28T09:28:03.635Z,24.63
2018-08-28T09:30:30.890Z,24.75
2018-08-28T09:32:58.208Z,24.92
2018-08-28T09:35:25.448Z,25.01
2018-08-28T09:37:52.733Z,25.14
2018-08-28T09:40:20.144Z,25.66
2018-08-28T09:42:47.448Z,26.25
2018-08-28T09:45:14.815Z,26.67
2018-08-28T09:47:42.197Z,26.34
2018-08-28T09:50:09.590Z,26.50
2018-08-28T09:52:36.844Z,26.47
2018-08-28T09:55:04.211Z,26.46
2018-08-28T09:57:31.517Z,26.56
2018-08-28T09:59:58.939Z,26.54
2018-08-28T10:02:26.351Z,26.38
2018-08-28T10:04:53.721Z,26.33
2018-08-28T10:07:20.936Z,25.95
2018-08-28T10:09:48.233Z,25.35
2018-08-28T10:12:15.569Z,25.43
2018-08-28T10:14:42.866Z,25.89
2018-08-28T10:17:10.185Z,26.03
2018-08-28T10:19:37.466Z,26.37
2018-08-28T10:22:04.780Z,27.06
2018-08-28T10:24:32.032Z,27.78
2018-08-28T10:26:59.391Z,27.68
2018-08-28T10:29:26.657Z,27.96
2018-08-28T10:31:54.014Z,28.80
2018-08-28T10:34:21.337Z,28.93
2018-08-28T10:36:48.843Z,28.88
2018-08-28T10:39:16.155Z,28.94
2018-08-28T10:41:43.435Z,28.80
2018-08-28T10:44:10.785Z,28.20
2018-08-28T10:46:38.115Z,28.05
2018-08-28T10:49:05.419Z,28.28
2018-08-28T10:51:32.724Z,28.62
2018-08-28T10:53:59.977Z,28.97
2018-08-28T10:56:27.237Z,28.44
2018-08-28T10:58:56.251Z,28.32
2018-08-28T11:01:23.622Z,27.78
2018-08-28T11:03:50.833Z,27.09
2018-08-28T11:06:18.121Z,26.75
2018-08-28T11:08:45.469Z,27.12
2018-08-28T11:11:12.707Z,27.37
2018-08-28T11:13:40.000Z,28.13
2018-08-28T11:16:07.421Z,27.23
2018-08-28T11:18:34.771Z,26.93
2018-08-28T11:21:02.080Z,27.01
2018-08-28T11:23:29.416Z,26.94
2018-08-28T11:25:56.761Z,27.09
2018-08-28T11:28:23.999Z,26.93
2018-08-28T11:30:51.269Z,26.83
2018-08-28T11:33:18.556Z,26.90
2018-08-28T11:35:46.018Z,27.01
2018-08-28T11:38:13.316Z,26.78
2018-08-28T11:40:40.546Z,26.39
2018-08-28T11:43:07.965Z,26.12
2018-08-28T11:45:35.263Z,26.05
2018-08-28T11:48:02.954Z,26.03
2018-08-28T11:50:31.000Z,26.42
2018-08-28T11:52:58.309Z,27.08
2018-08-28T11:55:25.614Z,27.62
2018-08-28T11:57:52.924Z,27.56
2018-08-28T12:00:20.256Z,27.69
2018-08-28T12:03:06.900Z,27.00
2018-08-28T12:05:34.150Z,28.03
2018-08-28T12:08:01.536Z,28.27
2018-08-28T12:10:28.882Z,28.52
2018-08-28T12:12:56.244Z,28.04
2018-08-28T12:15:23.517Z,27.78
2018-08-28T12:17:50.856Z,27.92
2018-08-28T12:20:18.283Z,27.90
2018-08-28T12:22:45.668Z,28.05
2018-08-28T12:25:13.186Z,27.77
2018-08-28T12:27:40.537Z,27.74
2018-08-28T12:30:09.095Z,28.02
2018-08-28T12:32:36.413Z,28.33
2018-08-28T12:35:03.909Z,28.64
2018-08-28T12:37:31.221Z,28.92
2018-08-28T12:39:58.565Z,29.28
2018-08-28T12:42:25.875Z,30.02
2018-08-28T12:44:53.131Z,30.28
2018-08-28T12:47:20.550Z,30.62
2018-08-28T12:49:47.891Z,30.58
2018-08-28T12:52:15.131Z,30.44
2018-08-28T12:54:42.407Z,30.54
2018-08-28T12:57:09.707Z,30.30
2018-08-28T13:02:30.593Z,30.05
2018-08-28T13:04:57.835Z,30.70
2018-08-28T13:07:25.183Z,30.90
2018-08-28T13:09:52.454Z,30.75
2018-08-28T13:12:19.685Z,31.07
2018-08-28T13:14:47.143Z,30.43
2018-08-28T13:17:14.431Z,30.72
2018-08-28T13:19:41.767Z,30.20
2018-08-28T13:22:09.067Z,29.85
2018-08-28T13:24:36.402Z,29.28
2018-08-28T13:27:07.161Z,28.50
2018-08-28T13:29:34.474Z,29.11
2018-08-28T13:32:01.937Z,29.26
2018-08-28T13:34:29.174Z,29.56
2018-08-28T13:36:56.454Z,30.14
2018-08-28T13:39:23.810Z,30.84
2018-08-28T13:41:51.166Z,31.40
2018-08-28T13:47:11.291Z,30.73
2018-08-28T13:49:38.634Z,30.27
2018-08-28T13:52:06.285Z,29.48
2018-08-28T13:54:33.690Z,29.27
2018-08-28T13:57:01.022Z,29.25
2018-08-28T13:59:28.439Z,29.20
2018-08-28T14:01:55.786Z,29.11
2018-08-28T14:04:23.094Z,28.92
2018-08-28T14:06:50.405Z,28.79
2018-08-28T14:09:17.666Z,29.23
2018-08-28T14:11:44.945Z,29.32
2018-08-28T14:14:12.213Z,29.76
2018-08-28T14:16:39.600Z,29.80
2018-08-28T14:19:06.852Z,29.31
2018-08-28T14:21:34.193Z,29.79
2018-08-28T14:24:01.566Z,29.44
2018-08-28T14:26:29.623Z,29.23
2018-08-28T14:28:56.990Z,29.18
2018-08-28T14:31:24.280Z,29.47
2018-08-28T14:33:51.476Z,29.90
2018-08-28T14:36:18.837Z,30.69
2018-08-28T14:38:46.214Z,31.57
2018-08-28T14:41:13.479Z,31.34
2018-08-28T14:43:40.901Z,31.74
2018-08-28T14:46:08.742Z,32.07
2018-08-28T14:48:36.303Z,32.50
2018-08-28T14:51:03.685Z,32.78
2018-08-28T14:53:30.981Z,33.30
2018-08-28T14:55:58.200Z,33.48
2018-08-28T14:58:25.649Z,33.77
2018-08-28T15:00:56.304Z,34.12
2018-08-28T15:03:24.069Z,34.36
2018-08-28T15:05:51.346Z,34.58
2018-08-28T15:08:18.710Z,34.72
2018-08-28T15:10:46.037Z,35.00
2018-08-28T15:13:13.324Z,34.91
2018-08-28T15:15:40.793Z,34.83
2018-08-28T15:18:08.051Z,34.83
2018-08-28T15:20:35.423Z,35.09
2018-08-28T15:23:02.748Z,34.98
2018-08-28T15:25:30.308Z,35.31
2018-08-28T15:27:57.618Z,35.00
2018-08-28T15:30:24.902Z,35.18
2018-08-28T15:32:52.271Z,34.52
2018-08-28T15:35:19.624Z,33.94
2018-08-28T15:37:46.822Z,34.28
2018-08-28T15:40:14.181Z,34.35
2018-08-28T15:42:41.609Z,33.81
2018-08-28T15:45:08.884Z,33.87
2018-08-28T15:47:36.166Z,34.01
2018-08-28T15:50:03.568Z,33.86
2018-08-28T15:52:30.825Z,33.83
2018-08-28T15:54:58.092Z,33.66
2018-08-28T15:57:25.356Z,32.42
2018-08-28T15:59:52.632Z,32.19
2018-08-28T16:02:19.928Z,32.28
2018-08-28T16:04:47.384Z,32.40
2018-08-28T16:07:14.723Z,31.48
2018-08-28T16:09:41.967Z,31.77
2018-08-28T16:12:09.388Z,32.22
2018-08-28T16:14:37.632Z,32.19
2018-08-28T16:17:05.018Z,32.01
2018-08-28T16:19:32.357Z,31.32
2018-08-28T16:22:01.008Z,30.07
2018-08-28T16:24:28.331Z,30.23
2018-08-28T16:26:55.670Z,30.51
2018-08-28T16:29:23.037Z,30.35
2018-08-28T16:31:50.518Z,30.48
2018-08-28T16:34:17.830Z,30.43
2018-08-28T16:36:45.176Z,30.50
2018-08-28T16:39:12.504Z,30.38
2018-08-28T16:41:39.795Z,30.25
2018-08-28T16:44:07.268Z,30.09
2018-08-28T16:46:35.039Z,30.03
2018-08-28T16:49:02.275Z,29.85
2018-08-28T16:51:29.570Z,29.74
2018-08-28T16:53:56.845Z,29.73
2018-08-28T16:56:24.101Z,29.21
2018-08-28T16:58:51.499Z,28.83
2018-08-28T17:01:18.911Z,28.62
2018-08-28T17:03:46.206Z,28.28
2018-08-28T17:06:13.685Z,28.16
2018-08-28T17:11:33.627Z,27.70
2018-08-28T17:14:00.923Z,27.34
2018-08-28T17:16:28.255Z,27.03
2018-08-28T17:18:55.478Z,26.77
2018-08-28T17:21:22.797Z,26.62
2018-08-28T17:23:50.094Z,26.36
2018-08-28T17:26:17.383Z,26.22
2018-08-28T17:28:44.626Z,26.10
2018-08-28T17:31:11.924Z,26.02
2018-08-28T17:33:39.202Z,25.90
2018-08-28T17:36:06.908Z,25.85
2018-08-28T17:38:34.239Z,25.77
2018-08-28T17:41:01.529Z,25.60
2018-08-28T17:43:28.848Z,25.49
2018-08-28T17:45:56.230Z,25.42
2018-08-28T17:48:24.048Z,25.23
2018-08-28T17:50:51.621Z,25.16
2018-08-28T17:53:18.953Z,25.05
2018-08-28T17:55:46.271Z,24.90
2018-08-28T17:58:13.607Z,24.86
2018-08-28T18:00:41.054Z,24.72
2018-08-28T18:03:10.475Z,24.59
2018-08-28T18:05:38.172Z,24.48
2018-08-28T18:08:05.543Z,24.24
2018-08-28T18:10:32.925Z,24.17
2018-08-28T18:13:00.312Z,24.07
2018-08-28T18:15:27.621Z,23.86
2018-08-28T18:17:55.009Z,23.69
2018-08-28T18:20:25.982Z,23.63
2018-08-28T18:22:53.265Z,23.47
2018-08-28T18:25:20.502Z,23.29
2018-08-28T18:27:55.824Z,23.31
2018-08-28T18:30:23.102Z,23.22
2018-08-28T18:32:50.437Z,23.07
2018-08-28T18:35:17.746Z,22.92
2018-08-28T18:37:45.280Z,22.86
2018-08-28T18:40:12.551Z,22.74
2018-08-28T18:42:39.903Z,22.68
2018-08-28T18:45:07.308Z,22.55
2018-08-28T18:47:34.568Z,22.42
2018-08-28T18:50:01.909Z,22.32
2018-08-28T18:52:29.160Z,22.30
2018-08-28T18:54:56.469Z,22.25
2018-08-28T18:57:23.804Z,22.18
2018-08-28T18:59:51.111Z,22.13
2018-08-28T19:02:18.407Z,22.09
2018-08-28T19:04:45.777Z,22.05
2018-08-28T19:07:13.783Z,21.96
2018-08-28T19:09:41.118Z,21.94
2018-08-28T19:12:08.471Z,21.87
2018-08-28T19:14:35.832Z,21.75
2018-08-28T19:17:03.374Z,21.69
2018-08-28T19:19:30.654Z,21.62
2018-08-28T19:21:57.992Z,21.62
2018-08-28T19:24:25.326Z,21.56
2018-08-28T19:26:52.701Z,21.40
2018-08-28T19:29:20.071Z,21.32
2018-08-28T19:31:48.244Z,21.26
2018-08-28T19:34:15.473Z,21.23
2018-08-28T19:36:42.751Z,21.10
2018-08-28T19:39:10.001Z,21.08
2018-08-28T19:41:37.293Z,21.07
2018-08-28T19:44:04.665Z,20.99
2018-08-28T19:46:31.890Z,20.97
2018-08-28T19:48:59.221Z,20.89
2018-08-28T19:51:26.535Z,20.85
2018-08-28T19:53:53.824Z,20.77
2018-08-28T19:56:21.102Z,20.71
2018-08-28T19:58:48.322Z,20.69
2018-08-28T20:01:15.572Z,20.64
2018-08-28T20:03:42.888Z,20.58
2018-08-28T20:06:10.259Z,20.51
2018-08-28T20:08:37.539Z,20.47
2018-08-28T20:11:05.128Z,20.38
2018-08-28T20:13:32.487Z,20.28
2018-08-28T20:15:59.719Z,20.23
2018-08-28T20:18:26.996Z,20.16
2018-08-28T20:20:54.336Z,20.07
2018-08-28T20:23:21.564Z,20.03
2018-08-28T20:25:48.802Z,19.99
2018-08-28T20:28:16.099Z,19.93
2018-08-28T20:30:43.323Z,19.91
2018-08-28T20:33:10.599Z,19.84
2018-08-28T20:35:37.966Z,19.73
2018-08-28T20:38:05.350Z,19.67
2018-08-28T20:40:32.610Z,19.62
2018-08-28T20:42:59.865Z,19.60
2018-08-28T20:45:27.206Z,19.59
2018-08-28T20:47:54.510Z,19.56
2018-08-28T20:50:21.797Z,19.57
2018-08-28T20:52:49.114Z,19.52
2018-08-28T20:55:16.473Z,19.44
2018-08-28T20:57:43.771Z,19.37
2018-08-28T21:00:11.128Z,19.37
2018-08-28T21:02:38.372Z,19.25
2018-08-28T21:05:05.753Z,19.13
2018-08-28T21:07:33.045Z,19.14
2018-08-28T21:10:00.362Z,19.16
2018-08-28T21:12:27.807Z,19.13
2018-08-28T21:14:55.172Z,19.08
2018-08-28T21:17:22.498Z,18.96
2018-08-28T21:19:49.757Z,18.96
2018-08-28T21:22:17.102Z,18.92
2018-08-28T21:24:44.354Z,18.83
2018-08-28T21:27:11.684Z,18.79
2018-08-28T21:29:38.997Z,18.76
2018-08-28T21:32:20.113Z,18.74
2018-08-28T21:34:47.364Z,18.64
2018-08-28T21:37:14.704Z,18.52
2018-08-28T21:39:41.991Z,18.50
2018-08-28T21:42:09.289Z,18.41
2018-08-28T21:44:36.568Z,18.40
2018-08-28T21:47:03.838Z,18.31
2018-08-28T21:49:31.163Z,18.28
2018-08-28T21:51:58.472Z,18.28
2018-08-28T21:54:25.811Z,18.20
2018-08-28T21:56:53.070Z,18.14
2018-08-28T21:59:20.363Z,18.15
2018-08-28T22:01:47.709Z,18.04
2018-08-28T22:04:15.064Z,18.05
2018-08-28T22:06:48.220Z,18.05
2018-08-28T22:09:15.512Z,18.06
2018-08-28T22:11:42.885Z,18.06
2018-08-28T22:14:10.146Z,18.00
2018-08-28T22:16:37.463Z,17.91
2018-08-28T22:19:05.011Z,17.83
2018-08-28T22:21:32.328Z,17.74
2018-08-28T22:24:00.670Z,17.69
2018-08-28T22:26:28.028Z,17.64
2018-08-28T22:28:55.283Z,17.65
2018-08-28T22:31:22.634Z,17.62
2018-08-28T22:33:49.863Z,17.56
2018-08-28T22:36:17.165Z,17.59
2018-08-28T22:38:44.488Z,17.55
2018-08-28T22:41:11.769Z,17.54
2018-08-28T22:43:39.147Z,17.46
2018-08-28T22:46:06.619Z,17.48
2018-08-28T22:48:33.858Z,17.49
2018-08-28T22:51:01.190Z,17.46
2018-08-28T22:53:28.542Z,17.40
2018-08-28T22:55:55.858Z,17.31
2018-08-28T22:58:23.111Z,17.20
2018-08-28T23:00:50.386Z,17.20
2018-08-28T23:03:17.661Z,17.17
2018-08-28T23:05:44.935Z,17.14
2018-08-28T23:08:12.226Z,17.13
2018-08-28T23:10:39.549Z,17.04
2018-08-28T23:13:06.960Z,16.89
2018-08-28T23:15:34.270Z,16.76
2018-08-28T23:18:01.551Z,16.65
2018-08-28T23:20:28.961Z,16.68
2018-08-28T23:22:56.257Z,16.60
2018-08-28T23:25:23.586Z,16.64
2018-08-28T23:27:50.832Z,16.66
2018-08-28T23:30:18.235Z,16.62
2018-08-28T23:32:45.417Z,16.59
2018-08-28T23:35:12.758Z,16.57
2018-08-28T23:37:40.022Z,16.59
2018-08-28T23:40:08.185Z,16.63
2018-08-28T23:42:35.538Z,16.59
2018-08-28T23:45:02.955Z,16.60
2018-08-28T23:47:30.222Z,16.55
2018-08-28T23:49:57.622Z,16.54
2018-08-28T23:52:24.930Z,16.51
2018-08-28T23:54:52.191Z,16.52
2018-08-28T23:57:19.570Z,16.48
2018-08-28T23:59:46.803Z,16.41
